Latest Coastal Weather Observations for Hogan Island

IDV60701

Issued at 2:01 am EST Wednesday 29 April 2015 (issued every 10 minutes, with the page automatically refreshed every 10 minutes)

About coastal observations | Map of coastal stations | Coastal observations for VIC | Marine services | Other Formats
Station Details ID: 200838 Name: HOGAN ISLAND Lat: -39.22 Lon: 146.98 Height: 116.0 m
Data from the previous 72 hours. | See also: Recent months at Hogan Island
Date/Time
EST
Temp

°C
Wind Pressure Rain
since 9am
mm
Weather Cloud Vis
km
Sea
Height
m
Swell
Dir
 
Speed
knots
Gust
knots
hPa Trend Height
m
Period
s
Dir
29/02:00am 12.1 WSW 9 12 1029.0 - 0.0 - - - - - - -
29/01:30am 11.5 W 11 15 1029.1 - 0.0 - - - - - - -
29/01:00am 11.6 W 13 16 1029.2 - 0.0 - - - - - - -
29/12:30am 11.6 W 14 16 1029.1 - 0.0 - - - - - - -
29/12:00am 11.9 W 14 16 1029.0 - 0.0 - - - - - - -
 
Date/Time
EST
Temp

°C
Wind Pressure Rain
since 9am
mm
Weather Cloud Vis
km
Sea
Height
m
Swell
Dir
 
Speed
knots
Gust
knots
hPa Trend Height
m
Period
s
Dir
28/11:30pm 12.2 WSW 16 19 1029.0 - 0.0 - - - - - - -
28/11:00pm 12.2 WSW 16 20 1028.9 - 0.0 - - - - - - -
28/10:30pm 12.4 WSW 19 22 1028.7 - 0.0 - - - - - - -
28/10:00pm 12.4 WSW 16 19 1028.6 - 0.0 - - - - - - -
28/09:30pm 12.8 WSW 18 22 1028.5 - 0.0 - - - - - - -
28/09:00pm 12.9 WSW 19 21 1028.4 - 0.0 - - - - - - -
28/08:30pm 12.6 W 16 19 1028.3 - 0.0 - - - - - - -
28/08:00pm 13.0 WSW 17 21 1028.2 - 0.0 - - - - - - -
28/07:30pm 12.4 WSW 18 21 1028.2 - 0.0 - - - - - - -
28/07:00pm 12.7 W 21 25 1027.9 - 0.0 - - - - - - -
28/06:30pm 12.6 WSW 19 22 1027.7 - 0.0 - - - - - - -
28/06:00pm 12.7 WSW 17 21 1027.6 - 0.0 - - - - - - -
28/05:30pm 12.4 WSW 18 23 1027.1 - 0.0 - - - - - - -
28/05:00pm 12.4 WSW 19 22 1027.0 - 0.0 - - - - - - -
28/04:30pm 13.4 WSW 17 20 1026.9 - 0.0 - - - - - - -
28/04:00pm 14.3 WSW 16 20 1026.8 - 0.0 - - - - - - -
28/03:30pm 14.9 WSW 15 18 1026.9 - 0.0 - - - - - - -
28/03:00pm 15.2 WSW 15 18 1026.7 - 0.0 - - - - - - -
28/02:30pm 15.2 WSW 14 18 1026.7 - 0.0 - - - - - - -
28/02:00pm 15.4 WSW 14 17 1026.7 - 0.0 - - - - - - -
28/01:30pm 15.6 WSW 14 17 1026.9 - 0.0 - - - - - - -
28/01:00pm 15.3 SW 15 18 1027.0 - 0.0 - - - - - - -
28/12:30pm 15.4 SW 15 17 1027.3 - 0.0 - - - - - - -
28/12:00pm 15.7 SW 15 19 1027.4 - 0.0 - - - - - - -
28/11:30am 15.4 SW 16 19 1027.6 - 0.0 - - - - - - -
28/11:00am 16.0 SW 15 19 1027.5 - 0.0 - - - - - - -
28/10:30am 15.9 SW 14 17 1027.4 - 0.0 - - - - - - -
28/10:00am 15.7 SW 13 16 1027.2 - 0.0 - - - - - - -
28/09:30am 15.8 SW 9 12 1026.9 - 0.0 - - - - - - -
28/09:00am 14.9 SW 11 15 1026.8 - 0.0 - - - - - - -
28/08:30am 14.8 WSW 8 10 1026.6 - 0.0 - - - - - - -
28/08:00am 13.8 WSW 12 15 1026.1 - 0.0 - - - - - - -
28/07:30am 13.1 WSW 13 15 1025.9 - 0.0 - - - - - - -
28/07:00am 12.7 W 14 17 1025.6 - 0.0 - - - - - - -
28/06:30am 12.4 WSW 14 19 1025.2 - 0.0 - - - - - - -
28/06:00am 12.2 WSW 15 17 1025.0 - 0.0 - - - - - - -
28/05:30am 12.1 WSW 16 20 1024.6 - 0.0 - - - - - - -
28/05:00am 12.1 WSW 16 19 1024.5 - 0.0 - - - - - - -
28/04:30am 12.3 WSW 18 21 1024.1 - 0.0 - - - - - - -
28/04:00am 12.0 WSW 16 20 1023.9 - 0.0 - - - - - - -
28/03:30am 12.0 WSW 17 21 1023.7 - 0.0 - - - - - - -
28/03:00am 12.2 W 17 21 1023.2 - 0.0 - - - - - - -
28/02:30am 12.1 WSW 15 19 1023.5 - 0.0 - - - - - - -
28/02:00am 12.4 WSW 16 19 1023.5 - 0.0 - - - - - - -
28/01:30am 12.8 WSW 17 21 1023.7 - 0.0 - - - - - - -
28/01:00am 12.8 WSW 17 21 1023.6 - 0.0 - - - - - - -
28/12:30am 13.0 WSW 18 22 1023.5 - 0.0 - - - - - - -
28/12:00am 12.9 WSW 17 21 1023.4 - 0.0 - - - - - - -
 
Date/Time
EST
Temp

°C
Wind Pressure Rain
since 9am
mm
Weather Cloud Vis
km
Sea
Height
m
Swell
Dir
 
Speed
knots
Gust
knots
hPa Trend Height
m
Period
s
Dir
27/11:30pm 13.1 WSW 16 19 1023.5 - 0.0 - - - - - - -
27/11:00pm 12.9 WSW 15 17 1023.4 - 0.0 - - - - - - -
27/10:30pm 12.8 SW 16 19 1023.4 - 0.0 - - - - - - -
27/10:00pm 13.3 SW 17 20 1023.4 - 0.0 - - - - - - -
27/09:30pm 13.0 WSW 18 22 1023.1 - 0.0 - - - - - - -
27/09:00pm 13.1 WSW 20 24 1022.7 - 0.0 - - - - - - -
27/08:30pm 13.2 WSW 21 25 1022.5 - 0.0 - - - - - - -
27/08:00pm 13.2 WSW 23 27 1022.3 - 0.0 - - - - - - -
27/07:30pm 13.0 W 22 26 1022.0 - 0.0 - - - - - - -
27/07:00pm 13.1 WSW 24 29 1021.8 - 0.0 - - - - - - -
27/06:30pm 13.0 WSW 21 27 1021.5 - 0.0 - - - - - - -
27/06:00pm 12.5 WSW 21 24 1021.2 - 0.0 - - - - - - -
27/05:30pm 12.6 WSW 25 30 1021.1 - 0.0 - - - - - - -
27/05:00pm 12.7 WSW 26 30 1020.7 - 0.0 - - - - - - -
27/04:30pm 12.8 WSW 27 31 1020.5 - 0.0 - - - - - - -
27/04:00pm 13.1 SW 25 29 1020.4 - 0.0 - - - - - - -
27/03:30pm 13.3 WSW 25 30 1020.3 - 0.0 - - - - - - -
27/03:00pm 13.4 WSW 23 30 1020.0 - 0.0 - - - - - - -
27/02:30pm 13.6 WSW 24 29 1019.9 - 0.0 - - - - - - -
27/02:00pm 13.9 WSW 25 31 1019.7 - 0.0 - - - - - - -
27/01:30pm 14.4 WSW 24 30 1019.5 - 0.0 - - - - - - -
27/01:00pm 14.6 WSW 25 29 1019.6 - 0.0 - - - - - - -
27/12:30pm 14.5 WSW 26 31 1019.7 - 0.0 - - - - - - -
27/12:00pm 14.6 WSW 25 30 1019.9 - 0.0 - - - - - - -
27/11:30am 14.3 WSW 25 32 1020.1 - 0.0 - - - - - - -
27/11:00am 13.5 WSW 25 29 1020.3 - 0.0 - - - - - - -
27/10:30am 14.1 WSW 23 27 1020.3 - 0.0 - - - - - - -
27/10:00am 13.6 SW 24 29 1020.1 - 0.0 - - - - - - -
27/09:30am 13.1 SW 25 30 1019.9 - 0.0 - - - - - - -
27/09:00am 13.1 SW 25 31 1019.6 - 0.8 - - - - - - -
27/08:30am 12.6 WSW 27 32 1019.3 - 0.8 - - - - - - -
27/08:00am 12.7 SW 27 33 1019.0 - 0.8 - - - - - - -
27/07:30am 12.2 WSW 28 34 1018.6 - 0.8 - - - - - - -
27/07:00am 12.3 WSW 28 33 1018.3 - 0.8 - - - - - - -
27/06:30am 12.1 SW 27 32 1018.0 - 0.8 - - - - - - -
27/06:00am 12.1 SW 30 34 1017.7 - 0.8 - - - - - - -
27/05:30am 11.4 SW 28 35 1017.6 - 0.8 - - - - - - -
27/05:00am 12.3 SW 28 34 1017.4 - 0.8 - - - - - - -
27/04:30am 12.3 SW 29 36 1017.0 - 0.8 - - - - - - -
27/04:00am 12.1 SW 29 34 1016.8 - 0.8 - - - - - - -
27/03:30am 12.1 SW 29 36 1016.6 - 0.8 - - - - - - -
27/03:00am 11.9 SW 33 39 1016.2 - 0.8 - - - - - - -
27/02:30am 11.9 SW 32 38 1016.3 - 0.8 - - - - - - -
27/02:00am 12.3 WSW 32 38 1016.5 - 0.8 - - - - - - -
27/01:30am 11.9 SW 31 37 1016.4 - 0.8 - - - - - - -
27/01:00am 12.1 WSW 32 39 1016.1 - 0.8 - - - - - - -
27/12:30am 12.1 SW 32 41 1016.2 - 0.8 - - - - - - -
27/12:00am 12.2 SW 30 36 1016.1 - 0.8 - - - - - - -
 
Date/Time
EST
Temp

°C
Wind Pressure Rain
since 9am
mm
Weather Cloud Vis
km
Sea
Height
m
Swell
Dir
 
Speed
knots
Gust
knots
hPa Trend Height
m
Period
s
Dir
26/11:30pm 12.2 SW 30 35 1016.3 - 0.8 - - - - - - -
26/11:00pm 11.9 SW 30 36 1016.2 - 0.8 - - - - - - -
26/10:30pm 12.0 SW 28 32 1016.2 - 0.8 - - - - - - -
26/10:03pm 11.4 WSW 30 40 1016.2 - 0.8 - - - - - - -
26/10:00pm 11.4 WSW 31 40 1016.2 - 0.8 - - - - - - -
26/09:30pm 12.0 WSW 29 34 1016.2 - 0.2 - - - - - - -
26/09:00pm 12.2 WSW 31 37 1015.9 - 0.2 - - - - - - -
26/08:30pm 12.3 W 32 37 1016.0 - 0.2 - - - - - - -
26/08:19pm 12.0 WSW 26 36 1015.9 - 0.2 - - - - - - -
26/08:00pm 11.9 WSW 31 37 1015.9 - 0.2 - - - - - - -
26/07:33pm 12.0 WSW 31 44 1015.5 - 0.0 - - - - - - -
26/07:30pm 13.3 WSW 29 35 1015.8 - 0.0 - - - - - - -
26/07:03pm 12.9 WSW 30 40 1015.9 - 0.0 - - - - - - -
26/07:00pm 12.9 WSW 32 40 1015.9 - 0.0 - - - - - - -
26/06:30pm 12.2 WSW 32 38 1015.6 - 0.0 - - - - - - -
26/06:00pm 12.9 WSW 32 37 1015.4 - 0.0 - - - - - - -
26/05:31pm 13.0 WSW 34 44 1015.2 - 0.0 - - - - - - -
26/05:30pm 12.8 WSW 35 44 1015.2 - 0.0 - - - - - - -
26/05:00pm 12.9 WSW 30 37 1014.8 - 0.0 - - - - - - -
26/04:30pm 13.5 WSW 30 37 1014.7 - 0.0 - - - - - - -
26/04:00pm 12.9 WSW 30 38 1014.4 - 0.0 - - - - - - -
26/03:30pm 12.7 WSW 30 35 1014.4 - 0.0 - - - - - - -
26/03:08pm 13.1 WSW 34 46 1013.7 - 0.0 - - - - - - -
26/03:00pm 13.3 W 30 35 1013.9 - 0.0 - - - - - - -
26/02:30pm 13.0 WSW 30 35 1014.2 - 0.0 - - - - - - -
26/02:00pm 13.7 WSW 31 37 1014.3 - 0.0 - - - - - - -
26/01:30pm 13.0 SW 29 35 1014.2 - 0.0 - - - - - - -
26/01:00pm 12.7 WSW 33 40 1014.0 - 0.0 - - - - - - -
26/12:30pm 13.3 WSW 35 41 1013.8 - 0.0 - - - - - - -
26/12:00pm 12.3 WSW 34 41 1013.7 - 0.0 - - - - - - -
26/11:30am 12.4 WSW 34 40 1014.0 - 0.0 - - - - - - -
26/11:00am 11.7 SW 33 40 1014.1 - 0.0 - - - - - - -
26/10:30am 11.5 SW 34 40 1013.9 - 0.0 - - - - - - -
26/10:00am 11.7 WSW 33 39 1013.8 - 0.0 - - - - - - -
26/09:30am 11.6 WSW 31 38 1013.7 - 0.0 - - - - - - -
26/09:00am 11.9 WSW 31 38 1013.4 - 34.6 - - - - - - -
26/08:30am 12.0 WSW 28 33 1013.5 - 34.6 - - - - - - -
26/08:00am 12.0 WSW 28 32 1013.2 - 34.6 - - - - - - -
26/07:30am 12.0 WSW 28 31 1012.7 - 34.6 - - - - - - -
26/07:00am 11.9 WSW 27 32 1012.3 - 34.6 - - - - - - -
26/06:30am 12.4 WSW 29 32 1011.8 - 34.6 - - - - - - -
26/06:00am 12.9 WSW 27 31 1011.4 - 34.6 - - - - - - -
26/05:30am 12.7 WSW 22 27 1011.4 - 34.6 - - - - - - -
26/05:00am 12.6 WSW 20 23 1011.4 - 34.6 - - - - - - -
26/04:30am 12.9 SW 20 24 1011.4 - 34.6 - - - - - - -
26/04:13am 12.9 SW 20 23 1011.2 - 34.6 - - - - - - -
26/04:00am 13.4 W 17 20 1011.1 - 34.4 - - - - - - -
26/03:30am 13.4 WNW 10 15 1011.0 - 34.0 - - - - - - -
26/03:00am 13.6 E 6 7 1011.0 - 31.6 - - - - - - -
26/02:30am 13.4 ESE 8 9 1011.1 - 31.6 - - - - - - -

Other Formats:

Comma delimited format used in spreadsheet applications
http://www.bom.gov.au/fwo/IDV60701/IDV60701.94949.axf

JavaScript Object Notation format (JSON) in row-major order
http://www.bom.gov.au/fwo/IDV60701/IDV60701.94949.json